createdAt,value
2019-01-05T00:00:54.378Z,95864.8
2019-01-05T00:05:50.992Z,95867.8
2019-01-05T00:10:47.224Z,95874.2
2019-01-05T00:15:43.021Z,95878.8
2019-01-05T00:20:39.044Z,95887.6
2019-01-05T00:25:35.784Z,95892
2019-01-05T00:30:32.195Z,95894.6
2019-01-05T00:35:28.738Z,95897.1
2019-01-05T00:40:24.590Z,95903.9
2019-01-05T00:45:20.712Z,95900.3
2019-01-05T00:50:17.168Z,95899.9
2019-01-05T00:55:13.635Z,95889.4
2019-01-05T01:00:09.818Z,95882.1
2019-01-05T01:05:06.072Z,95869.6
2019-01-05T01:10:02.557Z,95856.8
2019-01-05T01:14:58.872Z,95839.3
2019-01-05T01:19:55.012Z,95830.6
2019-01-05T01:24:51.507Z,95831.1
2019-01-05T01:29:47.840Z,95819.8
2019-01-05T01:34:44.084Z,95812.8
2019-01-05T01:39:40.502Z,95811.5
2019-01-05T01:44:36.967Z,95809.3
2019-01-05T01:49:33.674Z,95805.9
2019-01-05T01:54:30.166Z,95805.2
2019-01-05T01:59:26.862Z,95806.5
2019-01-05T02:04:23.271Z,95799.8
2019-01-05T02:09:19.784Z,95795.8
2019-01-05T02:14:15.924Z,95793.3
2019-01-05T02:19:12.752Z,95789
2019-01-05T02:24:09.034Z,95740.5
2019-01-05T02:29:05.620Z,95781.1
2019-01-05T02:34:02.088Z,95770.3
2019-01-05T02:38:58.553Z,95774.9
2019-01-05T02:43:54.857Z,95775.1
2019-01-05T02:48:51.357Z,95772
2019-01-05T02:53:47.882Z,95778.5
2019-01-05T02:58:44.605Z,95776.6
2019-01-05T03:03:41.018Z,95770.6
2019-01-05T03:08:37.572Z,95764.1
2019-01-05T03:13:34.744Z,95772.9
2019-01-05T03:18:35.187Z,95758.5
2019-01-05T03:23:33.821Z,95761.3
2019-01-05T03:28:31.601Z,95755.9
2019-01-05T03:33:29.990Z,95757.8
2019-01-05T03:38:29.241Z,95751.9
2019-01-05T03:43:29.890Z,95757.4
2019-01-05T03:48:27.784Z,95757.9
2019-01-05T03:53:30.985Z,95750.1
2019-01-05T03:58:29.176Z,95746.9
2019-01-05T04:03:28.260Z,95738.5
2019-01-05T04:08:26.430Z,95738.8
2019-01-05T04:13:25.005Z,95736.2
2019-01-05T04:18:27.374Z,95735.3
2019-01-05T04:23:21.013Z,95725.8
2019-01-05T04:28:21.616Z,95726.4
2019-01-05T04:33:19.429Z,95722.8
2019-01-05T04:38:16.139Z,95723.7
2019-01-05T04:43:14.898Z,95720
2019-01-05T04:48:17.873Z,95676.2
2019-01-05T04:53:15.540Z,95672
2019-01-05T04:58:18.414Z,95705.9
2019-01-05T05:03:16.786Z,95718.4
2019-01-05T05:08:14.402Z,95710.9
2019-01-05T05:13:11.845Z,95710.5
2019-01-05T05:18:13.834Z,95617.6
2019-01-05T05:23:12.218Z,95545.7
2019-01-05T05:28:08.158Z,95702.9
2019-01-05T05:33:06.062Z,95699.6
2019-01-05T05:38:09.695Z,95694.6
2019-01-05T05:43:04.203Z,95694.7
2019-01-05T05:48:02.647Z,95699
2019-01-05T05:53:00.246Z,95702.3
2019-01-05T05:57:58.602Z,95712
2019-01-05T06:02:55.960Z,95713.5
2019-01-05T06:07:54.111Z,95711.9
2019-01-05T06:12:52.836Z,95709.5
2019-01-05T06:17:52.402Z,95718.3
2019-01-05T06:22:48.153Z,95730.5
2019-01-05T06:27:46.135Z,95733.8
2019-01-05T06:32:46.254Z,95739.3
2019-01-05T06:37:46.070Z,95598
2019-01-05T06:42:45.501Z,95747.5
2019-01-05T06:47:47.660Z,95743.1
2019-01-05T06:52:45.962Z,95747.2
2019-01-05T06:57:42.875Z,95749.8
2019-01-05T07:02:42.152Z,95757.2
2019-01-05T07:07:41.035Z,95609.7
2019-01-05T07:12:38.258Z,95616.2
2019-01-05T07:17:36.870Z,95613.9
2019-01-05T07:22:35.587Z,95755.7
2019-01-05T07:27:32.957Z,95753.7
2019-01-05T07:32:30.196Z,95743.3
2019-01-05T07:37:26.996Z,95744.7
2019-01-05T07:42:24.574Z,95754.1
2019-01-05T07:47:23.295Z,95749.3
2019-01-05T07:52:18.768Z,95742
2019-01-05T07:57:20.962Z,95733.3
2019-01-05T08:02:18.891Z,95732.3
2019-01-05T08:07:17.742Z,96042.3
2019-01-05T08:12:14.845Z,95726.4
2019-01-05T08:17:11.396Z,95712.6
2019-01-05T08:22:08.605Z,95714.5
2019-01-05T08:27:06.245Z,95706.4
2019-01-05T08:32:03.498Z,95699.9
2019-01-05T08:37:00.594Z,95677.5
2019-01-05T08:41:58.313Z,95674.4
2019-01-05T08:46:55.722Z,95671.6
2019-01-05T08:51:53.604Z,95670.5
2019-01-05T08:56:51.576Z,95656.4
2019-01-05T09:01:48.615Z,95652.9
2019-01-05T09:06:49.316Z,95647.3
2019-01-05T09:11:48.427Z,95633.6
2019-01-05T09:16:44.105Z,95621.2
2019-01-05T09:21:43.824Z,95608.5
2019-01-05T09:26:41.849Z,95605.7
2019-01-05T09:31:39.611Z,95590.4
2019-01-05T09:36:36.528Z,95582.7
2019-01-05T09:41:34.034Z,95447
2019-01-05T09:46:31.887Z,95420.4
2019-01-05T09:51:28.963Z,95553.3
2019-01-05T09:56:27.123Z,95540.4
2019-01-05T10:01:24.373Z,95524.3
2019-01-05T10:06:22.724Z,95515.5
2019-01-05T10:11:19.078Z,95506.2
2019-01-05T10:16:21.535Z,95505.5
2019-01-05T10:21:15.913Z,95490.4
2019-01-05T10:26:12.806Z,95489.9
2019-01-05T10:31:08.060Z,95475.1
2019-01-05T10:36:04.281Z,95472.6
2019-01-05T10:41:00.715Z,95462.8
2019-01-05T10:45:57.264Z,95447.1
2019-01-05T10:50:53.685Z,95444.1
2019-01-05T10:55:50.291Z,95429.9
2019-01-05T11:00:46.705Z,95426.9
2019-01-05T11:05:43.427Z,95419.7
2019-01-05T11:10:39.953Z,95421.1
2019-01-05T11:15:36.357Z,95407.6
2019-01-05T11:20:35.809Z,95397.3
2019-01-05T11:25:29.607Z,95384.3
2019-01-05T11:30:25.862Z,95373.1
2019-01-05T11:35:22.376Z,95371.3
2019-01-05T11:40:19.054Z,95366.3
2019-01-05T11:45:15.377Z,95221.1
2019-01-05T11:50:11.824Z,95367.4
2019-01-05T11:55:08.465Z,95347.6
2019-01-05T12:00:04.931Z,95173.2
2019-01-05T12:05:01.622Z,95326.9
2019-01-05T12:10:01.365Z,95183.6
2019-01-05T12:14:56.348Z,95316.1
2019-01-05T12:19:52.994Z,95323.3
2019-01-05T12:24:50.933Z,95307.6
2019-01-05T12:29:46.406Z,95173.9
2019-01-05T12:34:43.229Z,95298.9
2019-01-05T12:39:39.153Z,95300.5
2019-01-05T12:44:35.706Z,95290.2
2019-01-05T12:49:31.552Z,95281.7
2019-01-05T12:54:28.350Z,95283
2019-01-05T12:59:24.662Z,95272.8
2019-01-05T13:04:21.590Z,95262.8
2019-01-05T13:09:17.893Z,95259.7
2019-01-05T13:14:14.287Z,95260.1
2019-01-05T13:19:10.290Z,95254
2019-01-05T13:24:06.554Z,95245.9
2019-01-05T13:29:03.040Z,95243.3
2019-01-05T13:33:59.357Z,95071.9
2019-01-05T13:38:55.832Z,95249.5
2019-01-05T13:43:52.400Z,95248.7
2019-01-05T13:48:48.870Z,95244.8
2019-01-05T13:53:45.489Z,95251.8
2019-01-05T13:58:41.720Z,95250.9
2019-01-05T14:03:38.312Z,95245.2
2019-01-05T14:08:34.412Z,95249.1
2019-01-05T14:13:31.003Z,95257.4
2019-01-05T14:18:27.033Z,95239.5
2019-01-05T14:23:22.861Z,95235.5
2019-01-05T14:28:19.407Z,95240.3
2019-01-05T14:33:15.821Z,95230.7
2019-01-05T14:38:12.340Z,95222.7
2019-01-05T14:43:08.711Z,95226.1
2019-01-05T14:48:05.165Z,95223.9
2019-01-05T14:53:02.087Z,95224.9
2019-01-05T14:57:58.348Z,95221.5
2019-01-05T15:02:54.627Z,95235.1
2019-01-05T15:07:51.098Z,95195.7
2019-01-05T15:12:47.211Z,95237.6
2019-01-05T15:17:43.443Z,95238.1
2019-01-05T15:22:39.941Z,95238.3
2019-01-05T15:27:36.465Z,95234.9
2019-01-05T15:32:32.437Z,95234.6
2019-01-05T15:37:28.673Z,95235.2
2019-01-05T15:47:21.502Z,95235.5
2019-01-05T15:52:17.966Z,95236.6
2019-01-05T15:57:14.063Z,95247.6
2019-01-05T16:02:10.958Z,95251.9
2019-01-05T16:07:07.531Z,95249.2
2019-01-05T16:12:03.872Z,95251.6
2019-01-05T16:17:00.416Z,95256.3
2019-01-05T16:21:57.212Z,95197.4
2019-01-05T16:26:59.001Z,95253.1
2019-01-05T16:31:49.940Z,95257.8
2019-01-05T16:36:46.312Z,95252
2019-01-05T16:41:42.682Z,95257.8
2019-01-05T16:46:39.198Z,95260.9
2019-01-05T16:51:35.654Z,95251.6
2019-01-05T16:56:32.123Z,95256.7
2019-01-05T17:01:28.887Z,95254.9
2019-01-05T17:06:24.846Z,95258
2019-01-05T17:11:21.330Z,95256.8
2019-01-05T17:16:17.609Z,95246.7
2019-01-05T17:21:18.292Z,95087.8
2019-01-05T17:26:13.403Z,95127.4
2019-01-05T17:31:10.255Z,95253.3
2019-01-05T17:41:03.326Z,95245.2
2019-01-05T17:45:59.760Z,95101.3
2019-01-05T17:50:56.355Z,95243
2019-01-05T17:55:52.842Z,95240.8
2019-01-05T18:00:49.687Z,95093.5
2019-01-05T18:05:45.997Z,95054.9
2019-01-05T18:10:42.402Z,95053.7
2019-01-05T18:15:38.918Z,95229.3
2019-01-05T18:20:35.254Z,95079.2
2019-01-05T18:25:31.137Z,95229.1
2019-01-05T18:35:22.848Z,95231.2
2019-01-05T18:40:19.348Z,95223.3
2019-01-05T18:45:15.797Z,95224.2
2019-01-05T18:50:12.878Z,95092.4
2019-01-05T18:55:09.905Z,95228
2019-01-05T19:00:06.334Z,93871.7
2019-01-05T19:05:02.435Z,95212.7
2019-01-05T19:09:59.000Z,95215.9
2019-01-05T19:14:55.063Z,95218.8
2019-01-05T19:19:51.586Z,95213.8
2019-01-05T19:24:48.270Z,95210
2019-01-05T19:29:44.753Z,95208.4
2019-01-05T19:34:40.946Z,95209.5
2019-01-05T19:39:37.455Z,95190.1
2019-01-05T19:44:34.101Z,95191.1
2019-01-05T19:49:30.790Z,95190.9
2019-01-05T19:54:27.284Z,95195.2
2019-01-05T19:59:23.989Z,95140.3
2019-01-05T20:04:20.310Z,95189.4
2019-01-05T20:09:16.758Z,95190.4
2019-01-05T20:14:13.233Z,95185.1
2019-01-05T20:19:09.429Z,95183.4
2019-01-05T20:24:06.163Z,95178.1
2019-01-05T20:29:02.451Z,95174.3
2019-01-05T20:33:58.986Z,95116.8
2019-01-05T20:38:55.473Z,95157.1
2019-01-05T20:43:51.942Z,95149.6
2019-01-05T20:48:52.163Z,95141.7
2019-01-05T20:53:47.633Z,95133.9
2019-01-05T20:58:44.500Z,95131.7
2019-01-05T21:03:41.184Z,95122.6
2019-01-05T21:08:37.213Z,95121.4
2019-01-05T21:13:33.324Z,95114.1
2019-01-05T21:18:30.243Z,95112.6
2019-01-05T21:23:26.948Z,95111.2
2019-01-05T21:28:23.432Z,95104.4
2019-01-05T21:33:25.654Z,95106.6
2019-01-05T21:38:16.656Z,95101.4
2019-01-05T21:43:12.831Z,95097.7
2019-01-05T21:48:08.540Z,95086.6
2019-01-05T21:53:04.659Z,95090.2
2019-01-05T21:58:01.277Z,95080.2
2019-01-05T22:02:57.515Z,95025.7
2019-01-05T22:07:54.148Z,95080.1
2019-01-05T22:12:50.776Z,95066
2019-01-05T22:17:47.341Z,95054.2
2019-01-05T22:22:44.004Z,95047.9
2019-01-05T22:27:40.666Z,95032.3
2019-01-05T22:32:36.532Z,95034.2
2019-01-05T22:37:32.962Z,95035.4
2019-01-05T22:42:29.356Z,94893.3
2019-01-05T22:47:25.978Z,95024.6
2019-01-05T22:52:22.283Z,95022
2019-01-05T22:57:19.506Z,95020.8
2019-01-05T23:02:15.999Z,95015.2
2019-01-05T23:07:12.333Z,95011.7
2019-01-05T23:12:08.681Z,95012.5
2019-01-05T23:17:04.979Z,95004.1
2019-01-05T23:22:01.430Z,95002.8
2019-01-05T23:26:57.818Z,95004.7
2019-01-05T23:31:54.094Z,93814
2019-01-05T23:36:50.949Z,94990.7
2019-01-05T23:41:47.371Z,94995.4
2019-01-05T23:46:43.691Z,94990.1
2019-01-05T23:51:39.989Z,94986
2019-01-05T23:56:36.504Z,94979.4
